createdAt,value
2022-11-16T00:01:40.353Z,7.40
2022-11-16T00:06:42.082Z,7.30
2022-11-16T00:11:44.450Z,7.30
2022-11-16T00:16:46.540Z,7.20
2022-11-16T00:21:48.216Z,7.00
2022-11-16T00:26:50.242Z,7.00
2022-11-16T00:31:52.448Z,6.90
2022-11-16T00:36:54.146Z,6.80
2022-11-16T00:41:55.785Z,6.80
2022-11-16T00:46:57.498Z,6.80
2022-11-16T00:51:59.201Z,6.90
2022-11-16T00:57:00.840Z,6.90
2022-11-16T01:02:02.509Z,6.90
2022-11-16T01:07:04.263Z,6.80
2022-11-16T01:12:09.011Z,6.80
2022-11-16T01:17:10.904Z,6.80
2022-11-16T01:22:12.723Z,6.80
2022-11-16T01:27:15.062Z,6.80
2022-11-16T01:32:16.727Z,6.70
2022-11-16T01:37:18.984Z,6.60
2022-11-16T01:42:23.732Z,6.60
2022-11-16T01:47:25.846Z,6.50
2022-11-16T01:52:31.465Z,6.50
2022-11-16T01:57:37.922Z,6.50
2022-11-16T02:02:39.737Z,6.50
2022-11-16T02:08:23.015Z,6.50
2022-11-16T02:13:42.615Z,6.30
2022-11-16T02:19:05.996Z,6.20
2022-11-16T02:24:44.845Z,6.20
2022-11-16T02:29:51.967Z,6.20
2022-11-16T02:35:21.259Z,6.20
2022-11-16T02:40:26.316Z,6.20
2022-11-16T02:45:32.376Z,6.20
2022-11-16T02:50:36.493Z,6.20
2022-11-16T02:55:38.227Z,6.20
2022-11-16T03:01:03.557Z,6.20
2022-11-16T03:06:20.694Z,6.20
2022-11-16T03:11:41.333Z,6.10
2022-11-16T03:16:47.875Z,6.00
2022-11-16T03:22:15.761Z,6.00
2022-11-16T03:27:47.039Z,6.00
2022-11-16T03:32:57.907Z,6.00
2022-11-16T03:38:01.084Z,6.00
2022-11-16T03:43:04.851Z,5.90
2022-11-16T03:48:07.395Z,5.90
2022-11-16T03:53:09.044Z,5.80
2022-11-16T03:58:10.974Z,5.80
2022-11-16T04:03:12.712Z,5.80
2022-11-16T04:08:36.060Z,5.80
2022-11-16T04:13:56.376Z,5.90
2022-11-16T04:19:16.881Z,5.90
2022-11-16T04:24:21.571Z,5.80
2022-11-16T04:29:23.597Z,5.90
2022-11-16T04:34:43.783Z,6.00
2022-11-16T04:39:45.425Z,6.10
2022-11-16T04:45:05.587Z,6.10
2022-11-16T04:50:07.577Z,6.00
2022-11-16T04:55:10.347Z,5.90
2022-11-16T05:00:12.743Z,6.00
2022-11-16T05:05:15.096Z,5.90
2022-11-16T05:10:17.273Z,6.00
2022-11-16T05:15:19.828Z,6.00
2022-11-16T05:20:40.089Z,6.10
2022-11-16T05:25:41.753Z,6.20
2022-11-16T05:30:45.888Z,6.20
2022-11-16T05:35:51.199Z,6.20
2022-11-16T05:40:52.903Z,6.10
2022-11-16T05:45:54.542Z,6.10
2022-11-16T05:51:00.162Z,6.10
2022-11-16T05:56:01.896Z,6.20
2022-11-16T06:01:04.144Z,6.10
2022-11-16T06:06:05.981Z,6.10
2022-11-16T06:11:09.525Z,6.10
2022-11-16T06:16:11.408Z,6.10
2022-11-16T06:21:14.674Z,6.20
2022-11-16T06:26:16.434Z,6.30
2022-11-16T06:31:18.156Z,6.30
2022-11-16T06:36:19.909Z,6.20
2022-11-16T06:41:21.946Z,6.20
2022-11-16T06:46:24.623Z,6.20
2022-11-16T06:51:26.327Z,6.20
2022-11-16T06:56:28.053Z,6.20
2022-11-16T07:01:29.820Z,6.30
2022-11-16T07:06:31.679Z,6.30
2022-11-16T07:11:34.913Z,6.20
2022-11-16T07:16:36.796Z,6.40
2022-11-16T07:21:38.776Z,6.50
2022-11-16T07:26:40.505Z,6.60
2022-11-16T07:31:42.329Z,6.50
2022-11-16T07:36:44.445Z,6.60
2022-11-16T07:41:47.038Z,6.70
2022-11-16T07:46:49.114Z,6.80
2022-11-16T07:51:50.970Z,6.90
2022-11-16T07:56:52.730Z,6.90
2022-11-16T08:01:55.862Z,7.00
2022-11-16T08:06:57.803Z,7.00
2022-11-16T08:12:00.108Z,7.20
2022-11-16T08:17:03.548Z,7.20
2022-11-16T08:22:05.236Z,7.30
2022-11-16T08:27:08.232Z,7.50
2022-11-16T08:32:09.910Z,7.70
2022-11-16T08:37:11.555Z,7.70
2022-11-16T08:42:13.207Z,7.70
2022-11-16T08:47:14.941Z,7.80
2022-11-16T08:52:16.872Z,7.90
2022-11-16T08:57:18.656Z,7.90
2022-11-16T09:02:25.385Z,7.90
2022-11-16T09:07:27.254Z,7.90
2022-11-16T09:12:28.950Z,8.10
2022-11-16T09:17:30.661Z,8.30
2022-11-16T09:22:32.374Z,8.10
2022-11-16T09:27:34.032Z,8.20
2022-11-16T09:32:35.754Z,8.20
2022-11-16T09:37:37.471Z,8.20
2022-11-16T09:43:06.257Z,8.30
2022-11-16T09:48:14.132Z,8.30
2022-11-16T09:53:32.869Z,8.30
2022-11-16T09:58:47.990Z,8.30
2022-11-16T10:03:53.999Z,8.40
2022-11-16T10:08:56.739Z,8.50
2022-11-16T10:14:39.706Z,8.40
2022-11-16T10:19:54.761Z,8.60
2022-11-16T10:25:20.445Z,8.70
2022-11-16T10:30:23.336Z,8.70
2022-11-16T10:35:33.978Z,8.70
2022-11-16T10:40:38.606Z,8.70
2022-11-16T10:45:40.513Z,8.80
2022-11-16T10:50:49.821Z,8.80
2022-11-16T10:56:14.889Z,8.90
2022-11-16T11:01:35.959Z,8.80
2022-11-16T11:06:40.040Z,9.00
2022-11-16T11:12:00.264Z,9.00
2022-11-16T11:17:12.162Z,9.10
2022-11-16T11:22:15.147Z,8.90
2022-11-16T11:27:32.484Z,8.80
2022-11-16T11:32:40.055Z,8.80
2022-11-16T11:37:41.949Z,8.80
2022-11-16T11:42:55.979Z,8.90
2022-11-16T11:48:06.796Z,9.10
2022-11-16T11:53:17.177Z,9.10
2022-11-16T11:58:19.692Z,9.10
2022-11-16T12:03:27.204Z,9.10
2022-11-16T12:08:41.150Z,9.10
2022-11-16T12:13:54.546Z,9.00
2022-11-16T12:19:31.732Z,9.10
2022-11-16T12:24:41.312Z,9.10
2022-11-16T12:30:01.117Z,9.00
2022-11-16T12:35:14.734Z,9.10
2022-11-16T12:40:53.167Z,9.10
2022-11-16T12:46:21.624Z,9.20
2022-11-16T12:51:40.392Z,8.90
2022-11-16T12:57:00.677Z,8.90
2022-11-16T13:02:44.491Z,9.00
2022-11-16T13:07:51.581Z,9.00
2022-11-16T13:13:15.361Z,8.90
2022-11-16T13:18:22.828Z,8.90
2022-11-16T13:23:45.036Z,8.90
2022-11-16T13:29:08.487Z,8.90
2022-11-16T13:34:24.544Z,8.70
2022-11-16T13:40:04.778Z,8.70
2022-11-16T13:45:17.249Z,8.70
2022-11-16T13:50:21.748Z,8.70
2022-11-16T13:55:38.502Z,8.60
2022-11-16T14:00:40.961Z,8.50
2022-11-16T14:05:48.313Z,8.50
2022-11-16T14:10:50.089Z,8.40
2022-11-16T14:16:17.868Z,8.50
2022-11-16T14:21:19.579Z,8.50
2022-11-16T14:26:44.217Z,8.40
2022-11-16T14:31:52.604Z,8.40
2022-11-16T14:36:54.895Z,8.30
2022-11-16T14:42:04.158Z,8.40
2022-11-16T14:47:14.367Z,8.20
2022-11-16T14:52:21.219Z,8.20
2022-11-16T14:57:24.237Z,8.20
2022-11-16T15:02:27.381Z,8.20
2022-11-16T15:07:30.228Z,8.20
2022-11-16T15:12:41.953Z,8.30
2022-11-16T15:18:07.064Z,8.20
2022-11-16T15:23:14.580Z,8.20
2022-11-16T15:28:27.857Z,8.20
2022-11-16T15:33:39.101Z,8.10
2022-11-16T15:38:41.732Z,8.00
2022-11-16T15:44:11.698Z,8.00
2022-11-16T15:49:32.509Z,8.00
2022-11-16T15:54:55.516Z,8.00
2022-11-16T15:59:57.655Z,8.10
2022-11-16T16:04:59.346Z,8.00
2022-11-16T16:10:19.331Z,8.00
2022-11-16T16:15:41.313Z,8.00
2022-11-16T16:20:47.555Z,7.90
2022-11-16T16:25:50.786Z,7.90
2022-11-16T16:30:52.657Z,7.90
2022-11-16T16:35:54.351Z,8.00
2022-11-16T16:41:04.092Z,7.90
2022-11-16T16:46:06.151Z,7.80
2022-11-16T16:51:11.567Z,7.90
2022-11-16T16:56:17.630Z,7.80
2022-11-16T17:01:19.357Z,7.90
2022-11-16T17:06:21.191Z,7.80
2022-11-16T17:11:23.114Z,7.70
2022-11-16T17:16:24.879Z,7.70
2022-11-16T17:21:26.988Z,7.70
2022-11-16T17:26:29.545Z,7.70
2022-11-16T17:31:31.372Z,7.80
2022-11-16T17:36:33.048Z,7.80
2022-11-16T17:41:34.748Z,7.80
2022-11-16T17:46:36.535Z,7.80
2022-11-16T17:51:38.245Z,7.80
2022-11-16T17:56:40.034Z,7.60
2022-11-16T18:01:41.782Z,7.60
2022-11-16T18:06:43.587Z,7.60
2022-11-16T18:11:45.309Z,7.70
2022-11-16T18:16:47.993Z,7.60
2022-11-16T18:21:49.932Z,7.60
2022-11-16T18:26:51.777Z,7.60
2022-11-16T18:31:53.708Z,7.70
2022-11-16T18:36:56.200Z,7.70
2022-11-16T18:41:57.868Z,7.50
2022-11-16T18:46:59.560Z,7.60
2022-11-16T18:52:01.412Z,7.60
2022-11-16T18:57:03.129Z,7.50
2022-11-16T19:02:04.789Z,7.60
2022-11-16T19:07:07.648Z,7.40
2022-11-16T19:12:09.430Z,7.50
2022-11-16T19:17:11.096Z,7.60
2022-11-16T19:22:12.745Z,7.50
2022-11-16T19:27:14.485Z,7.40
2022-11-16T19:32:16.158Z,7.20
2022-11-16T19:37:17.826Z,7.20
2022-11-16T19:42:19.538Z,7.20
2022-11-16T19:47:23.063Z,7.20
2022-11-16T19:52:24.982Z,7.20
2022-11-16T19:57:26.660Z,7.30
2022-11-16T20:02:28.352Z,7.40
2022-11-16T20:07:30.176Z,7.30
2022-11-16T20:12:32.977Z,7.10
2022-11-16T20:17:34.764Z,7.00
2022-11-16T20:22:36.469Z,7.00
2022-11-16T20:27:38.146Z,7.00
2022-11-16T20:32:39.783Z,7.00
2022-11-16T20:37:43.140Z,7.00
2022-11-16T20:42:44.792Z,6.90
2022-11-16T20:47:46.445Z,6.90
2022-11-16T20:52:52.557Z,7.00
2022-11-16T20:57:54.617Z,6.80
2022-11-16T21:02:56.350Z,6.80
2022-11-16T21:07:58.058Z,6.90
2022-11-16T21:13:18.488Z,6.90
2022-11-16T21:18:20.150Z,6.90
2022-11-16T21:23:21.868Z,6.80
2022-11-16T21:28:25.630Z,6.90
2022-11-16T21:33:28.625Z,6.80
2022-11-16T21:38:32.474Z,6.80
2022-11-16T21:43:36.413Z,6.90
2022-11-16T21:48:38.574Z,6.90
2022-11-16T21:53:40.446Z,6.80
2022-11-16T21:58:42.950Z,6.90
2022-11-16T22:03:44.973Z,6.80
2022-11-16T22:08:47.729Z,6.80
2022-11-16T22:13:50.272Z,6.90
2022-11-16T22:18:52.033Z,6.90
2022-11-16T22:23:54.394Z,6.80
2022-11-16T22:28:57.775Z,6.70
2022-11-16T22:33:59.557Z,6.60
2022-11-16T22:39:02.023Z,6.70
2022-11-16T22:44:03.887Z,6.80
2022-11-16T22:49:05.617Z,6.70
2022-11-16T22:54:07.463Z,6.70
2022-11-16T22:59:09.797Z,6.70
2022-11-16T23:04:11.557Z,6.60
2022-11-16T23:09:13.268Z,6.50
2022-11-16T23:14:35.242Z,6.50
2022-11-16T23:19:55.547Z,6.60
2022-11-16T23:25:16.146Z,6.50
2022-11-16T23:30:18.207Z,6.60
2022-11-16T23:35:20.167Z,6.50
2022-11-16T23:40:29.011Z,6.50
2022-11-16T23:45:30.684Z,6.30
2022-11-16T23:50:32.358Z,6.20
2022-11-16T23:55:35.181Z,6.10
